Flight Track Log - Related Links

Times and Time Zones

All times are in EDT time to prevent confusion due to time zone crossing. See the UAL3589 flight status page for this flight to view local times or setup timezone preferences in your user account.

Time Position Orientation Groundspeed Altitude Reporting Facility
EDT Latitude Longitude Course Direction KTS MPH feet Rate Location/Type
Thu 09:45:33 PM 40.6333 -74.1833 270° West 170 196 2,100  Level New York TRACON
Thu 09:46:33 PM 40.6333 -74.2500 270° West 174 200 3,800 1,500 Climbing New York TRACON
Thu 09:47:33 PM 40.6333 -74.3000 270° West 189 217 5,100 1,316 Climbing New York TRACON
Thu 09:48:27 PM 40.6333 -74.3667 270° West 205 236 6,300 1,263 Climbing New York TRACON
Thu 09:49:27 PM 40.6333 -74.4500 270° West 217 250 7,500 810 Climbing New York TRACON
Thu 09:50:33 PM 40.6333 -74.5500 270° West 250 288 8,000 455 Climbing New York TRACON
Thu 09:52:00 PM 40.5811 -74.6612 255° West  Level FlightAware Approximate
Thu 09:59:00 PM 40.5504 -75.3089 273° West  Level FlightAware Approximate
Thu 10:00:00 PM 40.5546 -75.4023 273° West  Level FlightAware Approximate
Thu 10:01:00 PM 40.5587 -75.4957 273° West  Level FlightAware Approximate
Thu 10:02:00 PM 40.5627 -75.5891 273° West  Level FlightAware Approximate
Thu 10:03:00 PM 40.5666 -75.6826 273° West  Level FlightAware Approximate
Thu 10:04:00 PM 40.5425 -75.7705 250° West  Level FlightAware Approximate
Thu 10:05:00 PM 40.5182 -75.8584 250° West  Level FlightAware Approximate
Thu 10:06:00 PM 40.4937 -75.9462 250° West  Level FlightAware Approximate
Thu 10:07:00 PM 40.4758 -76.0363 259° West  Level FlightAware Approximate
Thu 10:08:00 PM 40.4599 -76.1272 252° West  Level FlightAware Approximate
Thu 10:09:00 PM 40.4342 -76.2141 246° West  Level FlightAware Approximate
Thu 10:10:00 PM 40.4057 -76.2997 246° West  Level FlightAware Approximate
Thu 10:11:00 PM 40.3811 -76.3872 251° West  Level FlightAware Approximate
Thu 10:12:00 PM 40.3575 -76.4752 251° West  Level FlightAware Approximate
Thu 10:13:00 PM 40.3339 -76.5632 251° West  Level FlightAware Approximate
Thu 10:14:00 PM 40.3102 -76.6511 251° West  Level FlightAware Approximate
Thu 10:15:00 PM 40.2864 -76.7389 250° West  Level FlightAware Approximate
Thu 10:16:00 PM 40.2833 -76.8314 270° West  Level FlightAware Approximate
Thu 10:17:00 PM 40.2833 -76.9246 270° West  Level FlightAware Approximate
Thu 10:18:00 PM 40.2952 -77.0163 281° West  Level FlightAware Approximate
Thu 10:19:00 PM 40.2825 -77.0312 118° Southeast  Level FlightAware Approximate
Thu 10:20:00 PM 40.2500 -76.9485 90° East  Level FlightAware Approximate
Thu 10:21:00 PM 40.2313 -76.8627 123° Southeast  Level FlightAware Approximate
Thu 10:22:00 PM 40.1961 -76.7820 118° Southeast  Level FlightAware Approximate
Thu 10:23:00 PM 40.1932 -76.7626 118° Southeast  Level Estimated
Thu 10:24:00 PM 40.1932 -76.7626 118° Southeast  Level Estimated
Thu 10:25:00 PM 40.1932 -76.7626 118° Southeast  Level Estimated

Login

Don't have an account? Register now (free) for customized features, flight alerts, and more!